Time;durP1;ratioP1;P1;durP2;ratioP2;P2;SDS_P1;SDS_P2;PMS_P1;PMS_P2;Temp;Humidity;BMP_temperature;BMP_pressure;BME280_temperature;BME280_humidity;BME280_pressure;Samples;Min_cycle;Max_cycle;Signal;HPM_P1;HPM_P2
2023/08/15 00:01:17;;;;;;;25.20;9.20;;;20.20;99.90;;;;;;5054705;28;20021;-66
2023/08/15 00:03:46;;;;;;;16.00;9.70;;;20.20;99.90;;;;;;5054853;28;20032;-66
2023/08/15 00:06:12;;;;;;;15.32;9.68;;;20.10;99.90;;;;;;5054720;28;20025;-66
2023/08/15 00:08:38;;;;;;;189.45;12.30;;;20.00;99.90;;;;;;5054778;28;20098;-66
2023/08/15 00:11:03;;;;;;;518.50;17.13;;;20.10;99.90;;;;;;5054643;28;20021;-66
2023/08/15 00:13:29;;;;;;;22.30;9.25;;;20.10;99.90;;;;;;5054836;28;20454;-66
2023/08/15 00:15:55;;;;;;;13.23;8.65;;;19.90;99.90;;;;;;5054301;28;20021;-66
2023/08/15 00:18:20;;;;;;;15.73;9.48;;;19.80;99.90;;;;;;5054679;28;20032;-66
2023/08/15 00:20:47;;;;;;;18.85;10.43;;;19.90;99.90;;;;;;5054449;28;20028;-66
2023/08/15 00:23:13;;;;;;;16.92;9.55;;;19.80;99.90;;;;;;5054319;28;20078;-66
2023/08/15 00:25:39;;;;;;;19.00;10.52;;;19.80;99.90;;;;;;5054611;28;20029;-65
2023/08/15 00:28:05;;;;;;;14.55;9.38;;;19.80;99.90;;;;;;5054863;28;20013;-66
2023/08/15 00:30:32;;;;;;;18.42;9.95;;;19.90;99.90;;;;;;5054739;28;20013;-66
2023/08/15 00:32:58;;;;;;;14.27;9.57;;;19.90;99.90;;;;;;5054691;28;20036;-66
2023/08/15 00:35:24;;;;;;;16.65;9.13;;;19.90;99.90;;;;;;5054456;28;20025;-66
2023/08/15 00:37:49;;;;;;;16.20;9.10;;;19.80;99.90;;;;;;5054420;28;20053;-66
2023/08/15 00:40:15;;;;;;;12.13;8.52;;;19.80;99.90;;;;;;5054052;28;20032;-66
2023/08/15 00:42:41;;;;;;;13.85;8.70;;;19.80;99.90;;;;;;5053554;28;20396;-67
2023/08/15 00:45:07;;;;;;;10.75;8.25;;;19.80;99.90;;;;;;5054069;28;20365;-67
2023/08/15 00:47:33;;;;;;;19.70;9.55;;;19.80;99.90;;;;;;5053935;28;20068;-66
2023/08/15 00:50:01;;;;;;;13.18;8.68;;;19.80;99.90;;;;;;5053739;28;20045;-65
2023/08/15 00:52:27;;;;;;;15.75;8.93;;;19.80;99.90;;;;;;5054229;28;20086;-65
2023/08/15 00:54:54;;;;;;;16.02;9.35;;;19.80;99.90;;;;;;5053493;28;20432;-65
2023/08/15 00:57:21;;;;;;;18.75;9.32;;;19.80;99.90;;;;;;5054100;28;20021;-66
2023/08/15 00:59:47;;;;;;;19.10;9.85;;;19.90;99.90;;;;;;5053802;28;20021;-66
2023/08/15 01:02:12;;;;;;;18.38;10.43;;;19.90;99.90;;;;;;5052310;28;20037;-67
2023/08/15 01:04:40;;;;;;;17.13;9.07;;;20.00;99.90;;;;;;5053741;28;20373;-65
2023/08/15 01:07:06;;;;;;;15.30;9.38;;;20.00;99.90;;;;;;5053397;28;20017;-66
2023/08/15 01:09:31;;;;;;;19.95;9.10;;;20.10;99.90;;;;;;5054154;28;20086;-66
2023/08/15 01:12:22;;;;;;;12.40;9.10;;;20.00;99.90;;;;;;5053820;28;20319;-66
2023/08/15 01:15:23;;;;;;;11.60;8.18;;;19.90;99.90;;;;;;5053886;28;20099;-65
2023/08/15 01:18:11;;;;;;;13.73;8.90;;;19.90;99.90;;;;;;5042371;28;20322;-65
2023/08/15 01:20:38;;;;;;;21.30;9.95;;;19.90;99.90;;;;;;5050434;28;20047;-65
2023/08/15 01:23:06;;;;;;;14.75;9.70;;;19.90;99.90;;;;;;5053396;28;20028;-67
2023/08/15 01:25:37;;;;;;;15.88;9.15;;;19.90;99.90;;;;;;5053893;28;20033;-67
2023/08/15 01:28:03;;;;;;;20.10;9.15;;;19.90;99.90;;;;;;5053500;28;20085;-65
2023/08/15 01:30:29;;;;;;;16.08;8.90;;;19.90;99.90;;;;;;5053383;28;20528;-67
2023/08/15 01:33:11;;;;;;;16.13;8.52;;;19.90;99.90;;;;;;5053394;28;20071;-65
2023/08/15 01:35:46;;;;;;;12.90;8.70;;;19.80;99.90;;;;;;5053647;28;20032;-65
2023/08/15 01:39:04;;;;;;;15.90;9.00;;;19.80;99.90;;;;;;5053147;28;20029;-66
2023/08/15 01:41:33;;;;;;;17.20;8.80;;;19.70;99.90;;;;;;5044314;28;20460;-65
2023/08/15 01:44:00;;;;;;;14.00;9.30;;;19.70;99.90;;;;;;5053225;28;20064;-65
2023/08/15 01:46:26;;;;;;;19.17;8.93;;;19.80;99.90;;;;;;5053247;28;20025;-68
2023/08/15 01:48:51;;;;;;;12.85;9.27;;;19.70;99.90;;;;;;5053154;28;20389;-66
2023/08/15 01:51:17;;;;;;;18.27;8.85;;;19.70;99.90;;;;;;5053204;28;20437;-66
2023/08/15 01:53:43;;;;;;;14.98;8.75;;;19.70;99.90;;;;;;5053542;28;20066;-66
2023/08/15 01:56:09;;;;;;;14.90;8.48;;;19.70;99.90;;;;;;5057174;28;20430;-66
2023/08/15 01:58:35;;;;;;;16.25;9.60;;;19.60;99.90;;;;;;5057062;28;20040;-65
2023/08/15 02:01:02;;;;;;;16.13;8.57;;;19.50;99.90;;;;;;5057119;28;20021;-66
2023/08/15 02:03:28;;;;;;;13.55;8.60;;;19.50;99.90;;;;;;5056913;28;20025;-66
2023/08/15 02:05:53;;;;;;;14.00;8.88;;;19.40;99.90;;;;;;5056960;28;20029;-65
2023/08/15 02:08:20;;;;;;;17.15;8.85;;;19.40;99.90;;;;;;5057437;28;20017;-66
2023/08/15 02:10:46;;;;;;;13.05;9.50;;;19.40;99.90;;;;;;5056888;28;20030;-66
2023/08/15 02:13:11;;;;;;;18.52;8.75;;;19.40;99.90;;;;;;5056914;28;20103;-66
2023/08/15 02:15:37;;;;;;;15.80;8.98;;;19.40;99.90;;;;;;5057143;28;20052;-66
2023/08/15 02:18:03;;;;;;;17.40;9.05;;;19.40;99.90;;;;;;5056484;28;20031;-67
2023/08/15 02:20:28;;;;;;;13.88;9.02;;;19.30;99.90;;;;;;5056503;28;20021;-67
2023/08/15 02:22:54;;;;;;;13.25;7.88;;;19.30;99.90;;;;;;5057381;28;20071;-67
2023/08/15 02:25:20;;;;;;;11.70;8.38;;;19.30;99.90;;;;;;5056653;28;20029;-67
2023/08/15 02:27:45;;;;;;;15.20;9.07;;;19.30;99.90;;;;;;5056703;28;20016;-67
2023/08/15 02:30:11;;;;;;;18.65;8.95;;;19.30;99.90;;;;;;5056871;28;20101;-67
2023/08/15 02:32:37;;;;;;;27.35;8.48;;;19.30;99.90;;;;;;5056571;28;20021;-64
2023/08/15 02:35:03;;;;;;;48.30;8.57;;;19.20;99.90;;;;;;5056508;28;20029;-67
2023/08/15 02:37:28;;;;;;;13.57;8.55;;;19.10;99.90;;;;;;5056387;28;20053;-67
2023/08/15 02:39:54;;;;;;;18.95;8.90;;;19.10;99.90;;;;;;5056741;28;20017;-67
2023/08/15 02:42:20;;;;;;;14.25;8.45;;;19.00;99.90;;;;;;5056376;28;20029;-67
2023/08/15 02:44:45;;;;;;;15.77;9.10;;;19.00;99.90;;;;;;5056553;28;20028;-67
2023/08/15 02:47:11;;;;;;;16.58;9.27;;;19.00;99.90;;;;;;5056009;28;20028;-67
2023/08/15 02:49:38;;;;;;;18.85;8.70;;;19.10;99.90;;;;;;5056675;28;20053;-67
2023/08/15 02:52:04;;;;;;;20.63;9.30;;;19.10;99.90;;;;;;5056342;28;20128;-67
2023/08/15 02:54:30;;;;;;;11.10;8.05;;;19.10;99.90;;;;;;5056423;28;20092;-67
2023/08/15 02:56:56;;;;;;;13.55;8.13;;;19.10;99.90;;;;;;5056203;28;20028;-67
2023/08/15 02:59:22;;;;;;;11.20;7.63;;;19.00;99.90;;;;;;5056047;28;20021;-67
2023/08/15 03:01:47;;;;;;;16.30;7.80;;;19.00;99.90;;;;;;5055943;28;20025;-67
2023/08/15 03:04:13;;;;;;;12.30;7.53;;;18.90;99.90;;;;;;5055963;28;20079;-67
2023/08/15 03:06:39;;;;;;;11.13;7.53;;;18.90;99.90;;;;;;5054819;28;20131;-66
2023/08/15 03:09:05;;;;;;;10.32;6.68;;;19.00;99.90;;;;;;5056129;28;20327;-66
2023/08/15 03:11:30;;;;;;;8.63;7.03;;;18.90;99.90;;;;;;5056242;28;20349;-66
2023/08/15 03:13:58;;;;;;;37.72;6.45;;;18.90;99.90;;;;;;5055772;28;20032;-66
2023/08/15 03:16:24;;;;;;;8.73;6.50;;;18.90;99.90;;;;;;5055708;28;20107;-66
2023/08/15 03:18:49;;;;;;;274.85;13.77;;;18.90;99.90;;;;;;5055812;28;20092;-66
2023/08/15 03:21:15;;;;;;;47.50;7.53;;;18.90;99.90;;;;;;5055858;28;20025;-67
2023/08/15 03:23:41;;;;;;;31.15;7.78;;;18.80;99.90;;;;;;5055568;28;20048;-66
2023/08/15 03:26:06;;;;;;;10.43;7.63;;;18.80;99.90;;;;;;5055509;28;20025;-67
2023/08/15 03:28:33;;;;;;;10.55;7.60;;;18.70;99.90;;;;;;5055461;28;20021;-66
2023/08/15 03:31:08;;;;;;;10.73;6.75;;;18.70;99.90;;;;;;5055930;28;20048;-67
2023/08/15 03:33:34;;;;;;;10.65;7.55;;;18.70;99.90;;;;;;5055622;28;20033;-67
2023/08/15 03:35:59;;;;;;;13.35;7.88;;;18.70;99.90;;;;;;5055229;28;20025;-66
2023/08/15 03:38:25;;;;;;;15.45;8.77;;;18.70;99.90;;;;;;5055292;28;20025;-66
2023/08/15 03:41:04;;;;;;;14.55;7.82;;;18.70;99.90;;;;;;5055560;28;20392;-67
2023/08/15 03:43:30;;;;;;;14.15;8.13;;;18.70;99.90;;;;;;5055671;28;20025;-67
2023/08/15 03:45:56;;;;;;;13.23;8.32;;;18.70;99.90;;;;;;5055482;28;20035;-66
2023/08/15 03:48:22;;;;;;;13.70;7.68;;;18.70;99.90;;;;;;5055222;28;20124;-66
2023/08/15 03:50:47;;;;;;;12.02;8.02;;;18.60;99.90;;;;;;5055424;28;20468;-66
2023/08/15 03:53:13;;;;;;;18.13;8.60;;;18.60;99.90;;;;;;5055554;28;20484;-66
2023/08/15 03:55:39;;;;;;;14.88;7.97;;;18.60;99.90;;;;;;5055547;28;20350;-66
2023/08/15 03:58:04;;;;;;;12.57;7.40;;;18.60;99.90;;;;;;5054936;28;20470;-66
2023/08/15 04:00:30;;;;;;;13.82;7.53;;;18.60;99.90;;;;;;5055455;28;20025;-66
2023/08/15 04:02:55;;;;;;;11.77;7.40;;;18.60;99.90;;;;;;5054981;28;20404;-66
2023/08/15 04:05:23;;;;;;;12.18;8.00;;;18.60;99.90;;;;;;5054856;28;20040;-66
2023/08/15 04:07:49;;;;;;;11.85;8.13;;;18.60;99.90;;;;;;5054689;28;20021;-66
2023/08/15 04:10:16;;;;;;;13.77;8.25;;;18.70;99.90;;;;;;5053206;28;20021;-66
2023/08/15 04:12:44;;;;;;;17.33;8.35;;;18.60;99.90;;;;;;5054906;28;20031;-66
2023/08/15 04:15:10;;;;;;;12.73;8.82;;;18.60;99.90;;;;;;5054605;28;20445;-66
2023/08/15 04:17:35;;;;;;;13.25;7.90;;;18.70;99.90;;;;;;5054118;28;20029;-67
2023/08/15 04:20:01;;;;;;;14.95;7.32;;;18.60;99.90;;;;;;5054853;28;20025;-67
2023/08/15 04:22:27;;;;;;;10.38;7.07;;;18.70;99.90;;;;;;5055146;28;20078;-66
2023/08/15 04:24:53;;;;;;;14.80;8.30;;;18.70;99.90;;;;;;5054460;28;20029;-66
2023/08/15 04:27:18;;;;;;;14.48;7.75;;;18.70;99.90;;;;;;5054345;28;20045;-66
2023/08/15 04:29:44;;;;;;;11.90;7.88;;;18.70;99.90;;;;;;5054327;28;20045;-66
2023/08/15 04:32:09;;;;;;;15.38;8.20;;;18.70;99.90;;;;;;5054352;28;20369;-66
2023/08/15 04:34:35;;;;;;;15.88;8.57;;;18.70;99.90;;;;;;5054236;28;20025;-66
2023/08/15 04:37:01;;;;;;;16.35;8.27;;;18.70;99.90;;;;;;5054212;28;20032;-66
2023/08/15 04:39:27;;;;;;;11.73;8.13;;;18.70;99.90;;;;;;5054148;28;20450;-66
2023/08/15 04:41:52;;;;;;;13.20;8.63;;;18.70;99.90;;;;;;5052807;28;20108;-66
2023/08/15 04:44:18;;;;;;;15.13;7.97;;;18.70;99.90;;;;;;5054031;28;20108;-66
2023/08/15 04:46:44;;;;;;;11.18;8.00;;;18.70;99.90;;;;;;5054039;28;20021;-65
2023/08/15 04:49:09;;;;;;;12.60;7.57;;;18.70;99.90;;;;;;5053740;28;20098;-66
2023/08/15 04:51:35;;;;;;;15.10;8.27;;;18.80;99.90;;;;;;5053956;28;20025;-66
2023/08/15 04:54:00;;;;;;;12.35;7.75;;;18.80;99.90;;;;;;5053919;28;20120;-66
2023/08/15 04:56:26;;;;;;;9.57;7.43;;;18.80;99.90;;;;;;5053898;28;20408;-67
2023/08/15 04:58:52;;;;;;;10.55;7.75;;;18.70;99.90;;;;;;5052524;28;20017;-66
2023/08/15 05:01:17;;;;;;;9.52;7.03;;;18.80;99.90;;;;;;5054251;28;20028;-66
2023/08/15 05:03:43;;;;;;;11.00;7.40;;;18.90;99.90;;;;;;5053649;28;20445;-67
2023/08/15 05:06:09;;;;;;;15.70;7.57;;;18.90;99.90;;;;;;5053711;28;20062;-67
2023/08/15 05:08:34;;;;;;;9.82;7.53;;;18.90;99.90;;;;;;5053655;28;20345;-66
2023/08/15 05:11:00;;;;;;;14.02;7.93;;;19.00;99.90;;;;;;5053896;28;20025;-67
2023/08/15 05:13:26;;;;;;;10.18;7.78;;;19.10;99.90;;;;;;5053608;28;20059;-66
2023/08/15 05:15:52;;;;;;;12.88;7.57;;;19.00;99.90;;;;;;5053566;28;20025;-67
2023/08/15 05:18:19;;;;;;;11.27;6.90;;;19.10;99.90;;;;;;5053657;28;20033;-67
2023/08/15 05:20:48;;;;;;;9.98;7.30;;;19.20;99.90;;;;;;5053549;28;20078;-67
2023/08/15 05:23:17;;;;;;;11.30;6.90;;;19.30;99.90;;;;;;5054142;28;20028;-66
2023/08/15 05:25:43;;;;;;;12.30;7.70;;;19.40;99.90;;;;;;5053681;28;20025;-66
2023/08/15 05:28:10;;;;;;;10.30;7.60;;;19.50;99.90;;;;;;5053870;28;20029;-67
2023/08/15 05:30:36;;;;;;;10.25;7.32;;;19.50;99.90;;;;;;5052861;28;20017;-65
2023/08/15 05:33:02;;;;;;;19.67;7.75;;;19.50;99.90;;;;;;5053331;28;20044;-65
2023/08/15 05:35:28;;;;;;;8.68;6.63;;;19.40;99.90;;;;;;5053348;28;20070;-67
2023/08/15 05:37:54;;;;;;;18.00;7.32;;;19.40;99.90;;;;;;5053630;28;20459;-65
2023/08/15 05:40:20;;;;;;;9.82;7.40;;;19.40;99.90;;;;;;5053311;28;20032;-65
2023/08/15 05:42:46;;;;;;;14.10;6.65;;;19.40;99.90;;;;;;5053794;28;20426;-65
2023/08/15 05:45:11;;;;;;;12.20;8.27;;;19.40;99.90;;;;;;5053558;28;20040;-66
2023/08/15 05:47:37;;;;;;;13.35;7.38;;;19.40;99.90;;;;;;5053266;28;20446;-66
2023/08/15 05:50:03;;;;;;;9.82;7.20;;;19.40;99.90;;;;;;5051545;28;20049;-65
2023/08/15 05:52:29;;;;;;;12.68;7.97;;;19.50;99.90;;;;;;5053272;28;20107;-66
2023/08/15 05:54:56;;;;;;;12.40;7.95;;;19.50;99.90;;;;;;5053559;28;20048;-65
2023/08/15 05:57:22;;;;;;;13.95;8.15;;;19.50;99.90;;;;;;5053498;28;20052;-65
2023/08/15 05:59:48;;;;;;;10.98;7.68;;;19.30;99.90;;;;;;5053466;28;20029;-66
2023/08/15 06:02:14;;;;;;;11.00;7.85;;;19.30;99.90;;;;;;5053132;28;20021;-67
2023/08/15 06:04:40;;;;;;;11.65;8.00;;;19.30;99.90;;;;;;5053659;28;20036;-67
2023/08/15 06:07:06;;;;;;;12.80;8.38;;;19.30;99.90;;;;;;5053695;28;20087;-66
2023/08/15 06:09:31;;;;;;;16.00;9.13;;;19.40;99.90;;;;;;5053074;28;20102;-68
2023/08/15 06:11:57;;;;;;;13.13;7.45;;;19.40;99.90;;;;;;5053076;28;20425;-66
2023/08/15 06:14:23;;;;;;;11.10;7.93;;;19.50;99.90;;;;;;5053006;28;20464;-67
2023/08/15 06:16:49;;;;;;;12.15;7.38;;;19.60;99.90;;;;;;5053075;28;20060;-67
2023/08/15 06:19:14;;;;;;;23.20;8.10;;;19.60;99.90;;;;;;5052660;28;20025;-66
2023/08/15 06:21:43;;;;;;;12.10;8.15;;;19.60;99.90;;;;;;5053013;28;20025;-66
2023/08/15 06:24:11;;;;;;;14.98;8.25;;;19.60;99.90;;;;;;5053000;28;20029;-68
2023/08/15 06:26:38;;;;;;;11.32;8.38;;;19.60;99.90;;;;;;5052990;28;20021;-66
2023/08/15 06:29:04;;;;;;;12.93;7.85;;;19.60;99.90;;;;;;5052972;28;20103;-67
2023/08/15 06:31:31;;;;;;;14.27;8.38;;;19.70;99.90;;;;;;5053068;28;20519;-66
2023/08/15 06:33:57;;;;;;;11.95;8.30;;;19.80;99.90;;;;;;5053308;28;20041;-66
2023/08/15 06:36:22;;;;;;;11.45;7.88;;;19.80;99.90;;;;;;5052979;28;20102;-66
2023/08/15 06:38:50;;;;;;;15.90;8.75;;;19.90;99.90;;;;;;5052944;28;20036;-66
2023/08/15 06:41:16;;;;;;;13.48;8.55;;;19.90;99.90;;;;;;5054324;28;20098;-66
2023/08/15 06:43:41;;;;;;;18.40;9.63;;;20.10;99.90;;;;;;5055403;28;20025;-66
2023/08/15 06:46:07;;;;;;;15.63;8.55;;;20.30;99.90;;;;;;5056290;28;20032;-67
2023/08/15 06:48:33;;;;;;;18.98;9.07;;;20.50;99.90;;;;;;5056691;28;20041;-67
2023/08/15 06:50:58;;;;;;;17.60;8.80;;;20.80;99.90;;;;;;5056325;28;20061;-68
2023/08/15 06:53:24;;;;;;;14.95;8.30;;;21.00;99.90;;;;;;5056237;28;20396;-68
2023/08/15 06:55:50;;;;;;;13.55;8.85;;;21.20;99.90;;;;;;5056358;28;20025;-67
2023/08/15 06:58:16;;;;;;;13.13;9.25;;;21.40;99.90;;;;;;5056039;28;20067;-68
2023/08/15 07:00:44;;;;;;;12.43;9.30;;;21.60;99.90;;;;;;5056363;28;20028;-69
2023/08/15 07:03:10;;;;;;;15.23;9.50;;;21.80;99.90;;;;;;5056066;28;20055;-66
2023/08/15 07:05:35;;;;;;;21.25;10.55;;;22.00;99.90;;;;;;5056086;28;20025;-67
2023/08/15 07:08:03;;;;;;;24.10;10.27;;;22.10;99.90;;;;;;5055863;28;20104;-68
2023/08/15 07:10:32;;;;;;;18.05;9.32;;;22.30;99.90;;;;;;5055844;28;20032;-67
2023/08/15 07:12:57;;;;;;;13.10;9.40;;;22.60;99.90;;;;;;5056213;28;20028;-68
2023/08/15 07:15:23;;;;;;;16.63;10.18;;;22.80;99.90;;;;;;5055781;28;20018;-67
2023/08/15 07:17:49;;;;;;;16.45;10.35;;;23.00;99.90;;;;;;5055723;28;20442;-67
2023/08/15 07:20:14;;;;;;;17.40;9.55;;;23.10;99.90;;;;;;5056319;28;20354;-67
2023/08/15 07:22:43;;;;;;;15.68;9.98;;;23.30;99.90;;;;;;5055837;28;20032;-67
2023/08/15 07:25:11;;;;;;;25.00;10.48;;;23.40;99.90;;;;;;5055661;28;20029;-67
2023/08/15 07:27:37;;;;;;;17.63;10.80;;;23.50;99.90;;;;;;5055341;28;20032;-67
2023/08/15 07:30:05;;;;;;;16.58;9.98;;;23.70;99.90;;;;;;5055461;28;20479;-67
2023/08/15 07:32:36;;;;;;;16.65;11.05;;;23.70;99.90;;;;;;5055943;28;20449;-68
2023/08/15 07:35:03;;;;;;;21.83;11.55;;;23.80;99.90;;;;;;5055423;28;20024;-68
2023/08/15 07:37:29;;;;;;;14.40;10.00;;;23.90;99.90;;;;;;5055395;28;20120;-67
2023/08/15 07:40:05;;;;;;;15.48;10.40;;;24.00;99.90;;;;;;5055304;28;20025;-67
2023/08/15 07:42:31;;;;;;;13.25;9.80;;;24.20;99.90;;;;;;5055746;28;20509;-67
2023/08/15 07:44:57;;;;;;;15.52;10.07;;;24.40;99.90;;;;;;5055449;28;20139;-66
2023/08/15 07:47:22;;;;;;;13.52;9.10;;;24.60;99.90;;;;;;5055051;28;20048;-67
2023/08/15 07:49:48;;;;;;;17.17;9.80;;;24.80;99.90;;;;;;5054714;28;20049;-68
2023/08/15 07:52:14;;;;;;;13.93;9.95;;;24.90;99.90;;;;;;5054294;28;20078;-68
2023/08/15 07:54:42;;;;;;;15.05;9.52;;;25.00;99.90;;;;;;5055271;28;20025;-68
2023/08/15 07:57:08;;;;;;;15.43;9.70;;;25.20;99.90;;;;;;5055164;28;20036;-68
2023/08/15 07:59:34;;;;;;;15.50;9.55;;;25.40;99.90;;;;;;5055058;28;20017;-68
2023/08/15 08:01:59;;;;;;;16.02;9.55;;;25.60;99.90;;;;;;5055109;28;20107;-68
2023/08/15 08:04:25;;;;;;;11.15;8.95;;;25.70;99.90;;;;;;5054473;28;20025;-68
2023/08/15 08:06:50;;;;;;;14.73;8.90;;;25.60;99.90;;;;;;5054872;28;20020;-67
2023/08/15 08:09:16;;;;;;;15.90;9.57;;;25.70;99.90;;;;;;5054561;28;20024;-68
2023/08/15 08:11:42;;;;;;;13.43;9.95;;;25.60;99.90;;;;;;5054971;28;20016;-68
2023/08/15 08:14:08;;;;;;;19.48;9.60;;;25.60;99.90;;;;;;5054902;28;20017;-68
2023/08/15 08:16:33;;;;;;;13.98;9.48;;;25.60;99.90;;;;;;5054780;28;20032;-68
2023/08/15 08:18:59;;;;;;;15.10;10.02;;;25.50;99.90;;;;;;5054981;28;20025;-68
2023/08/15 08:21:25;;;;;;;12.73;9.52;;;25.50;99.90;;;;;;5055035;28;20025;-68
2023/08/15 08:23:51;;;;;;;13.93;9.52;;;25.40;99.90;;;;;;5054334;28;20024;-68
2023/08/15 08:26:16;;;;;;;12.93;9.25;;;25.30;99.90;;;;;;5055151;28;20074;-68
2023/08/15 08:28:42;;;;;;;12.27;9.25;;;25.30;99.90;;;;;;5054610;28;20025;-68
2023/08/15 08:31:07;;;;;;;15.70;10.05;;;25.30;99.90;;;;;;5054829;28;20021;-68
2023/08/15 08:33:33;;;;;;;13.77;9.05;;;25.30;99.90;;;;;;5054513;28;20096;-68
2023/08/15 08:35:59;;;;;;;16.25;9.75;;;25.40;99.90;;;;;;5054310;28;20021;-68
2023/08/15 08:38:25;;;;;;;15.82;9.75;;;25.40;99.90;;;;;;5054240;28;20084;-68
2023/08/15 08:40:53;;;;;;;19.02;10.23;;;25.50;99.90;;;;;;5054197;28;20025;-68
2023/08/15 08:43:19;;;;;;;20.48;10.10;;;25.50;99.90;;;;;;5054040;28;20029;-68
2023/08/15 08:45:50;;;;;;;19.00;10.00;;;25.40;99.90;;;;;;5054110;28;20052;-68
2023/08/15 08:48:18;;;;;;;15.80;9.88;;;25.40;99.90;;;;;;5054013;28;20029;-68
2023/08/15 08:50:45;;;;;;;16.05;9.48;;;25.30;99.90;;;;;;5054322;28;20025;-68
2023/08/15 08:53:10;;;;;;;21.45;10.45;;;25.20;99.90;;;;;;5054032;28;20025;-68
2023/08/15 08:55:38;;;;;;;21.30;10.00;;;25.30;99.90;;;;;;5054311;28;20087;-68
2023/08/15 08:58:05;;;;;;;15.05;9.13;;;25.30;99.90;;;;;;5054295;28;20013;-67
2023/08/15 09:00:32;;;;;;;17.77;9.73;;;25.20;99.90;;;;;;5053703;28;20039;-67
2023/08/15 09:02:58;;;;;;;14.10;10.05;;;25.30;99.90;;;;;;5054079;28;20445;-67
2023/08/15 09:05:24;;;;;;;13.30;9.13;;;25.40;99.90;;;;;;5053779;28;20020;-67
2023/08/15 09:07:51;;;;;;;17.05;9.55;;;25.30;99.90;;;;;;5053573;28;20108;-68
2023/08/15 09:10:16;;;;;;;16.35;9.48;;;25.30;99.90;;;;;;5054080;28;20086;-67
2023/08/15 09:12:45;;;;;;;13.60;9.52;;;25.20;99.90;;;;;;5053567;28;20029;-67
2023/08/15 09:15:11;;;;;;;14.20;9.57;;;25.20;99.90;;;;;;5053503;28;20028;-67
2023/08/15 09:17:41;;;;;;;15.05;9.57;;;25.20;99.90;;;;;;5053423;28;20358;-68
2023/08/15 09:20:11;;;;;;;15.90;9.63;;;25.10;99.90;;;;;;5053488;28;20075;-68
2023/08/15 09:22:45;;;;;;;13.48;9.43;;;25.10;99.90;;;;;;5052440;28;20068;-67
2023/08/15 09:25:15;;;;;;;11.60;8.75;;;25.00;99.90;;;;;;5053730;28;20025;-67
2023/08/15 09:27:42;;;;;;;17.20;9.85;;;25.00;99.90;;;;;;5054408;28;20025;-68
2023/08/15 09:30:08;;;;;;;12.70;8.98;;;25.00;99.90;;;;;;5053588;28;20017;-67
2023/08/15 09:32:34;;;;;;;14.98;9.70;;;24.90;99.90;;;;;;5053814;28;20048;-68
2023/08/15 09:34:59;;;;;;;12.93;8.75;;;24.90;99.90;;;;;;5053786;28;20017;-68
2023/08/15 09:37:26;;;;;;;14.00;9.40;;;24.90;99.90;;;;;;5053473;28;20025;-67
2023/08/15 09:39:51;;;;;;;16.40;9.90;;;24.80;99.90;;;;;;5054030;28;20041;-67
2023/08/15 09:42:21;;;;;;;17.42;10.15;;;24.80;99.90;;;;;;5053659;28;20056;-67
2023/08/15 09:44:49;;;;;;;14.10;9.63;;;24.70;99.90;;;;;;5054235;28;20029;-68
2023/08/15 09:47:14;;;;;;;15.68;10.20;;;24.80;99.90;;;;;;5053296;28;20027;-67
2023/08/15 09:49:41;;;;;;;13.30;9.90;;;24.80;99.90;;;;;;5053205;28;20465;-67
2023/08/15 09:52:09;;;;;;;14.23;9.93;;;24.80;99.90;;;;;;5053491;28;20519;-67
2023/08/15 09:54:35;;;;;;;15.65;9.23;;;25.00;99.90;;;;;;5053595;28;20402;-68
2023/08/15 09:57:01;;;;;;;15.57;9.40;;;25.00;99.90;;;;;;5053051;28;20103;-68
2023/08/15 09:59:29;;;;;;;19.63;10.38;;;25.00;99.90;;;;;;5053610;28;20045;-68
2023/08/15 10:01:56;;;;;;;17.90;9.68;;;25.10;99.90;;;;;;5053135;28;20033;-68
2023/08/15 10:04:26;;;;;;;17.75;10.00;;;25.10;99.90;;;;;;5053539;28;20020;-68
2023/08/15 10:06:52;;;;;;;16.42;9.95;;;25.00;99.90;;;;;;5053326;28;20027;-68
2023/08/15 10:09:18;;;;;;;19.15;9.73;;;25.00;99.90;;;;;;5054080;28;20025;-68
2023/08/15 10:11:45;;;;;;;17.05;9.90;;;24.80;99.90;;;;;;5053491;28;20024;-69
2023/08/15 10:14:19;;;;;;;15.85;10.45;;;24.70;99.90;;;;;;5053242;28;20048;-68
2023/08/15 10:16:45;;;;;;;18.70;9.25;;;24.70;99.90;;;;;;5055845;28;20476;-68
2023/08/15 10:19:18;;;;;;;22.30;9.93;;;24.60;99.90;;;;;;5057104;28;20033;-69
2023/08/15 10:21:52;;;;;;;15.25;9.88;;;24.60;99.90;;;;;;5057654;28;20110;-68
2023/08/15 10:24:18;;;;;;;15.65;9.30;;;24.60;99.90;;;;;;5057766;28;20051;-68
2023/08/15 10:26:44;;;;;;;15.52;9.45;;;24.60;99.90;;;;;;5056839;28;20450;-68
2023/08/15 10:29:10;;;;;;;13.95;9.82;;;24.60;99.90;;;;;;5057124;28;20047;-68
2023/08/15 10:31:38;;;;;;;14.93;9.35;;;24.60;99.90;;;;;;5055523;28;20021;-68
2023/08/15 10:34:07;;;;;;;22.95;9.75;;;24.70;99.90;;;;;;5056700;28;20031;-68
2023/08/15 10:36:33;;;;;;;15.75;9.98;;;24.60;99.90;;;;;;5056820;28;20021;-69
2023/08/15 10:39:07;;;;;;;15.52;10.05;;;24.70;99.90;;;;;;5056653;28;20342;-69
2023/08/15 10:41:35;;;;;;;20.40;9.82;;;24.80;99.90;;;;;;5056546;28;20025;-69
2023/08/15 10:44:04;;;;;;;20.85;9.95;;;24.80;99.90;;;;;;5056483;28;20072;-68
2023/08/15 10:46:32;;;;;;;14.77;9.60;;;24.80;99.90;;;;;;5056322;28;20059;-68
2023/08/15 10:49:06;;;;;;;17.48;9.60;;;24.80;99.90;;;;;;5056890;28;20041;-68
2023/08/15 10:51:35;;;;;;;18.10;9.80;;;24.80;99.90;;;;;;5056512;28;20481;-69
2023/08/15 10:54:01;;;;;;;15.15;9.10;;;24.70;99.90;;;;;;5056429;28;20029;-69
2023/08/15 10:56:35;;;;;;;15.88;9.10;;;24.70;99.90;;;;;;5056876;28;20020;-69
2023/08/15 10:59:13;;;;;;;17.55;9.48;;;24.70;99.90;;;;;;5056361;28;20025;-68
2023/08/15 11:01:41;;;;;;;18.25;9.63;;;24.70;99.90;;;;;;5054733;28;20032;-70
2023/08/15 11:04:08;;;;;;;15.07;9.35;;;24.70;99.90;;;;;;5055874;28;20092;-69
2023/08/15 11:06:48;;;;;;;16.00;8.80;;;24.80;99.90;;;;;;5056090;28;20044;-69
2023/08/15 11:09:14;;;;;;;14.68;9.32;;;24.80;99.90;;;;;;5056460;28;20061;-69
2023/08/15 11:11:40;;;;;;;16.70;9.30;;;24.90;99.90;;;;;;5055966;28;20096;-69
2023/08/15 11:14:17;;;;;;;12.80;7.95;;;25.00;99.90;;;;;;5056677;28;20021;-67
2023/08/15 11:16:47;;;;;;;18.75;9.18;;;25.10;99.90;;;;;;5055918;28;20028;-69
2023/08/15 11:19:19;;;;;;;17.60;7.85;;;25.20;99.90;;;;;;5055469;28;20454;-69
2023/08/15 11:21:46;;;;;;;16.38;7.70;;;25.30;99.90;;;;;;5056316;28;20029;-68
2023/08/15 11:24:12;;;;;;;17.00;7.38;;;25.30;99.90;;;;;;5055686;28;20037;-69
2023/08/15 11:26:39;;;;;;;17.52;7.07;;;25.30;99.90;;;;;;5055783;28;20057;-68
2023/08/15 11:29:04;;;;;;;15.43;7.28;;;25.20;99.90;;;;;;5054917;28;20021;-68
2023/08/15 11:31:31;;;;;;;12.38;8.25;;;25.20;99.90;;;;;;5055622;28;20017;-68
2023/08/15 11:33:59;;;;;;;13.07;7.60;;;25.20;99.90;;;;;;5055539;28;20107;-69
2023/08/15 11:36:25;;;;;;;17.40;8.88;;;25.20;99.90;;;;;;5055435;28;20032;-69
2023/08/15 11:38:50;;;;;;;10.70;7.57;;;25.30;99.90;;;;;;5054193;28;20021;-69
2023/08/15 11:41:16;;;;;;;15.52;7.85;;;25.40;99.90;;;;;;5055706;28;20024;-69
2023/08/15 11:43:42;;;;;;;15.20;7.63;;;25.50;99.90;;;;;;5055877;28;20025;-69
2023/08/15 11:46:07;;;;;;;23.42;8.38;;;25.60;99.90;;;;;;5055333;28;20374;-69
2023/08/15 11:48:34;;;;;;;13.23;7.78;;;25.60;99.90;;;;;;5055143;28;20381;-68
2023/08/15 11:51:00;;;;;;;15.52;7.85;;;25.60;99.90;;;;;;5055558;28;20068;-69
2023/08/15 11:53:26;;;;;;;14.82;7.93;;;25.50;99.90;;;;;;5055246;28;20083;-69
2023/08/15 11:55:53;;;;;;;16.55;8.15;;;25.60;99.90;;;;;;5055070;28;20028;-69
2023/08/15 11:58:27;;;;;;;13.05;8.07;;;25.60;99.90;;;;;;5055159;28;20028;-68
2023/08/15 12:00:59;;;;;;;14.73;8.02;;;25.60;99.90;;;;;;5055527;28;20414;-68
2023/08/15 12:03:26;;;;;;;15.88;7.93;;;25.70;99.90;;;;;;5054947;28;20503;-69
2023/08/15 12:05:56;;;;;;;13.80;8.57;;;25.80;99.90;;;;;;5054897;28;20086;-68
2023/08/15 12:08:26;;;;;;;16.67;8.02;;;26.00;99.90;;;;;;5054822;28;20025;-69
2023/08/15 12:10:54;;;;;;;13.73;7.82;;;26.20;99.90;;;;;;5053729;28;20029;-69
2023/08/15 12:13:38;;;;;;;11.38;7.80;;;26.40;99.90;;;;;;5054798;28;20032;-69
2023/08/15 12:16:04;;;;;;;12.00;7.72;;;26.50;99.90;;;;;;5054729;28;20021;-69
2023/08/15 12:18:31;;;;;;;15.73;7.47;;;26.60;99.90;;;;;;5053565;28;20455;-69
2023/08/15 12:20:56;;;;;;;14.80;8.38;;;26.80;99.90;;;;;;5054349;28;20382;-68
2023/08/15 12:23:22;;;;;;;15.85;7.93;;;26.90;99.90;;;;;;5054343;28;20036;-68
2023/08/15 12:25:48;;;;;;;13.13;7.72;;;26.80;99.90;;;;;;5055304;28;20025;-69
2023/08/15 12:28:14;;;;;;;18.73;8.70;;;26.80;99.90;;;;;;5054523;28;20025;-68
2023/08/15 12:30:40;;;;;;;13.55;8.40;;;27.00;99.90;;;;;;5054367;28;20043;-68
2023/08/15 12:33:06;;;;;;;14.15;7.95;;;27.10;99.90;;;;;;5054935;28;20082;-68
2023/08/15 12:35:35;;;;;;;16.35;8.07;;;27.10;99.90;;;;;;5054928;28;20020;-69